sensor_id;sensor_type;location;lat;lon;timestamp;temperature;humidity
12125;DHT22;6126;57.908;16.490;2023-04-28T00:02:00;4.20;79.20
12125;DHT22;6126;57.908;16.490;2023-04-28T00:04:26;4.30;79.50
12125;DHT22;6126;57.908;16.490;2023-04-28T00:06:52;4.20;79.40
12125;DHT22;6126;57.908;16.490;2023-04-28T00:09:18;3.90;79.20
12125;DHT22;6126;57.908;16.490;2023-04-28T00:11:46;4.20;79.30
12125;DHT22;6126;57.908;16.490;2023-04-28T00:14:13;4.00;79.30
12125;DHT22;6126;57.908;16.490;2023-04-28T00:16:38;4.00;79.30
12125;DHT22;6126;57.908;16.490;2023-04-28T00:19:04;4.20;79.50
12125;DHT22;6126;57.908;16.490;2023-04-28T00:21:30;4.20;79.60
12125;DHT22;6126;57.908;16.490;2023-04-28T00:23:56;4.00;79.40
12125;DHT22;6126;57.908;16.490;2023-04-28T00:26:22;4.20;79.60
12125;DHT22;6126;57.908;16.490;2023-04-28T00:28:48;4.00;79.50
12125;DHT22;6126;57.908;16.490;2023-04-28T00:31:15;4.00;79.50
12125;DHT22;6126;57.908;16.490;2023-04-28T00:33:42;3.90;79.40
12125;DHT22;6126;57.908;16.490;2023-04-28T00:36:09;4.10;79.70
12125;DHT22;6126;57.908;16.490;2023-04-28T00:38:36;4.00;79.70
12125;DHT22;6126;57.908;16.490;2023-04-28T00:41:02;3.80;79.40
12125;DHT22;6126;57.908;16.490;2023-04-28T00:43:28;4.00;79.70
12125;DHT22;6126;57.908;16.490;2023-04-28T00:45:54;4.00;79.80
12125;DHT22;6126;57.908;16.490;2023-04-28T00:48:21;4.10;80.00
12125;DHT22;6126;57.908;16.490;2023-04-28T00:50:48;3.90;79.70
12125;DHT22;6126;57.908;16.490;2023-04-28T00:53:14;4.10;80.00
12125;DHT22;6126;57.908;16.490;2023-04-28T00:55:40;3.80;79.80
12125;DHT22;6126;57.908;16.490;2023-04-28T00:58:06;3.80;79.70
12125;DHT22;6126;57.908;16.490;2023-04-28T01:00:33;3.80;79.70
12125;DHT22;6126;57.908;16.490;2023-04-28T01:03:00;3.70;79.80
12125;DHT22;6126;57.908;16.490;2023-04-28T01:05:26;3.70;79.80
12125;DHT22;6126;57.908;16.490;2023-04-28T01:07:53;3.80;80.00
12125;DHT22;6126;57.908;16.490;2023-04-28T01:10:20;3.70;79.90
12125;DHT22;6126;57.908;16.490;2023-04-28T01:12:46;3.90;80.20
12125;DHT22;6126;57.908;16.490;2023-04-28T01:15:16;3.90;80.30
12125;DHT22;6126;57.908;16.490;2023-04-28T01:17:47;3.60;79.90
12125;DHT22;6126;57.908;16.490;2023-04-28T01:20:13;3.70;80.10
12125;DHT22;6126;57.908;16.490;2023-04-28T01:22:40;3.50;79.80
12125;DHT22;6126;57.908;16.490;2023-04-28T01:25:06;3.70;80.10
12125;DHT22;6126;57.908;16.490;2023-04-28T01:27:32;3.70;80.20
12125;DHT22;6126;57.908;16.490;2023-04-28T01:29:58;3.80;79.90
12125;DHT22;6126;57.908;16.490;2023-04-28T01:32:24;3.90;80.50
12125;DHT22;6126;57.908;16.490;2023-04-28T01:34:50;3.70;80.30
12125;DHT22;6126;57.908;16.490;2023-04-28T01:37:16;3.40;80.00
12125;DHT22;6126;57.908;16.490;2023-04-28T01:39:42;3.60;80.30
12125;DHT22;6126;57.908;16.490;2023-04-28T01:42:08;3.90;80.60
12125;DHT22;6126;57.908;16.490;2023-04-28T01:44:33;3.70;80.50
12125;DHT22;6126;57.908;16.490;2023-04-28T01:46:59;3.60;80.40
12125;DHT22;6126;57.908;16.490;2023-04-28T01:49:25;3.70;80.50
12125;DHT22;6126;57.908;16.490;2023-04-28T01:51:51;3.60;80.30
12125;DHT22;6126;57.908;16.490;2023-04-28T01:54:17;3.50;80.40
12125;DHT22;6126;57.908;16.490;2023-04-28T01:56:43;3.60;80.40
12125;DHT22;6126;57.908;16.490;2023-04-28T01:59:09;3.70;80.60
12125;DHT22;6126;57.908;16.490;2023-04-28T02:01:35;3.70;80.50
12125;DHT22;6126;57.908;16.490;2023-04-28T02:04:01;3.70;80.70
12125;DHT22;6126;57.908;16.490;2023-04-28T02:06:27;3.70;80.80
12125;DHT22;6126;57.908;16.490;2023-04-28T02:08:53;3.80;80.80
12125;DHT22;6126;57.908;16.490;2023-04-28T02:11:18;3.70;80.80
12125;DHT22;6126;57.908;16.490;2023-04-28T02:13:44;3.50;80.60
12125;DHT22;6126;57.908;16.490;2023-04-28T02:16:10;3.50;80.60
12125;DHT22;6126;57.908;16.490;2023-04-28T02:18:36;3.50;80.70
12125;DHT22;6126;57.908;16.490;2023-04-28T02:21:11;3.40;80.60
12125;DHT22;6126;57.908;16.490;2023-04-28T02:23:38;3.80;81.10
12125;DHT22;6126;57.908;16.490;2023-04-28T02:26:05;3.60;81.00
12125;DHT22;6126;57.908;16.490;2023-04-28T02:28:31;3.60;80.90
12125;DHT22;6126;57.908;16.490;2023-04-28T02:31:04;3.50;80.90
12125;DHT22;6126;57.908;16.490;2023-04-28T02:33:32;3.60;80.90
12125;DHT22;6126;57.908;16.490;2023-04-28T02:36:02;3.30;80.70
12125;DHT22;6126;57.908;16.490;2023-04-28T02:38:28;3.40;80.80
12125;DHT22;6126;57.908;16.490;2023-04-28T02:40:59;3.40;80.90
12125;DHT22;6126;57.908;16.490;2023-04-28T02:43:26;3.50;81.00
12125;DHT22;6126;57.908;16.490;2023-04-28T02:45:53;3.50;81.00
12125;DHT22;6126;57.908;16.490;2023-04-28T02:48:19;3.40;80.80
12125;DHT22;6126;57.908;16.490;2023-04-28T02:50:45;3.60;81.10
12125;DHT22;6126;57.908;16.490;2023-04-28T02:53:11;3.40;81.00
12125;DHT22;6126;57.908;16.490;2023-04-28T02:55:37;3.70;81.30
12125;DHT22;6126;57.908;16.490;2023-04-28T02:58:03;3.40;81.00
12125;DHT22;6126;57.908;16.490;2023-04-28T03:00:29;3.40;81.00
12125;DHT22;6126;57.908;16.490;2023-04-28T03:02:55;3.40;81.10
12125;DHT22;6126;57.908;16.490;2023-04-28T03:05:21;3.50;81.30
12125;DHT22;6126;57.908;16.490;2023-04-28T03:07:47;3.50;81.30
12125;DHT22;6126;57.908;16.490;2023-04-28T03:10:13;3.30;81.10
12125;DHT22;6126;57.908;16.490;2023-04-28T03:12:39;3.30;81.20
12125;DHT22;6126;57.908;16.490;2023-04-28T03:15:05;3.30;81.10
12125;DHT22;6126;57.908;16.490;2023-04-28T03:17:33;3.40;81.20
12125;DHT22;6126;57.908;16.490;2023-04-28T03:20:01;3.60;81.50
12125;DHT22;6126;57.908;16.490;2023-04-28T03:22:27;3.40;81.20
12125;DHT22;6126;57.908;16.490;2023-04-28T03:24:53;3.50;81.40
12125;DHT22;6126;57.908;16.490;2023-04-28T03:27:19;3.30;81.20
12125;DHT22;6126;57.908;16.490;2023-04-28T03:29:45;3.40;81.30
12125;DHT22;6126;57.908;16.490;2023-04-28T03:32:11;3.30;81.10
12125;DHT22;6126;57.908;16.490;2023-04-28T03:34:37;3.20;81.20
12125;DHT22;6126;57.908;16.490;2023-04-28T03:37:04;3.30;81.40
12125;DHT22;6126;57.908;16.490;2023-04-28T03:39:30;3.10;81.40
12125;DHT22;6126;57.908;16.490;2023-04-28T03:41:56;3.20;81.70
12125;DHT22;6126;57.908;16.490;2023-04-28T03:44:21;2.90;81.50
12125;DHT22;6126;57.908;16.490;2023-04-28T03:46:48;3.00;81.60
12125;DHT22;6126;57.908;16.490;2023-04-28T03:49:15;3.10;81.70
12125;DHT22;6126;57.908;16.490;2023-04-28T03:51:41;3.20;81.80
12125;DHT22;6126;57.908;16.490;2023-04-28T03:54:07;3.00;81.50
12125;DHT22;6126;57.908;16.490;2023-04-28T03:56:33;3.20;81.70
12125;DHT22;6126;57.908;16.490;2023-04-28T03:58:59;3.30;81.80
12125;DHT22;6126;57.908;16.490;2023-04-28T04:01:25;3.30;81.80
12125;DHT22;6126;57.908;16.490;2023-04-28T04:03:51;3.20;81.60
12125;DHT22;6126;57.908;16.490;2023-04-28T04:06:17;3.10;81.40
12125;DHT22;6126;57.908;16.490;2023-04-28T04:08:43;3.30;81.60
12125;DHT22;6126;57.908;16.490;2023-04-28T04:11:09;3.30;81.70
12125;DHT22;6126;57.908;16.490;2023-04-28T04:13:35;3.40;81.70
12125;DHT22;6126;57.908;16.490;2023-04-28T04:16:00;3.50;81.80
12125;DHT22;6126;57.908;16.490;2023-04-28T04:18:26;3.40;81.60
12125;DHT22;6126;57.908;16.490;2023-04-28T04:20:53;3.40;81.50
12125;DHT22;6126;57.908;16.490;2023-04-28T04:23:21;3.60;81.60
12125;DHT22;6126;57.908;16.490;2023-04-28T04:25:47;3.70;81.70
12125;DHT22;6126;57.908;16.490;2023-04-28T04:28:13;3.70;81.60
12125;DHT22;6126;57.908;16.490;2023-04-28T04:30:39;3.70;81.60
12125;DHT22;6126;57.908;16.490;2023-04-28T04:33:05;3.60;81.40
12125;DHT22;6126;57.908;16.490;2023-04-28T04:35:31;3.80;81.60
12125;DHT22;6126;57.908;16.490;2023-04-28T04:37:57;3.70;81.40
12125;DHT22;6126;57.908;16.490;2023-04-28T04:40:24;3.70;81.40
12125;DHT22;6126;57.908;16.490;2023-04-28T04:42:50;3.90;81.50
12125;DHT22;6126;57.908;16.490;2023-04-28T04:45:16;3.90;81.40
12125;DHT22;6126;57.908;16.490;2023-04-28T04:47:42;3.90;81.20
12125;DHT22;6126;57.908;16.490;2023-04-28T04:50:10;4.20;81.50
12125;DHT22;6126;57.908;16.490;2023-04-28T04:52:36;4.00;81.30
12125;DHT22;6126;57.908;16.490;2023-04-28T04:55:03;4.10;81.30
12125;DHT22;6126;57.908;16.490;2023-04-28T04:57:29;4.20;81.20
12125;DHT22;6126;57.908;16.490;2023-04-28T04:59:55;4.30;81.20
12125;DHT22;6126;57.908;16.490;2023-04-28T05:02:21;4.70;81.40
12125;DHT22;6126;57.908;16.490;2023-04-28T05:04:47;4.30;80.80
12125;DHT22;6126;57.908;16.490;2023-04-28T05:07:13;4.50;80.90
12125;DHT22;6126;57.908;16.490;2023-04-28T05:09:39;4.90;81.10
12125;DHT22;6126;57.908;16.490;2023-04-28T05:12:05;5.00;81.00
12125;DHT22;6126;57.908;16.490;2023-04-28T05:14:31;4.90;80.70
12125;DHT22;6126;57.908;16.490;2023-04-28T05:16:57;5.00;80.70
12125;DHT22;6126;57.908;16.490;2023-04-28T05:19:22;5.10;80.50
12125;DHT22;6126;57.908;16.490;2023-04-28T05:21:48;5.30;80.60
12125;DHT22;6126;57.908;16.490;2023-04-28T05:24:17;5.10;80.30
12125;DHT22;6126;57.908;16.490;2023-04-28T05:26:46;5.30;79.90
12125;DHT22;6126;57.908;16.490;2023-04-28T05:29:12;5.30;80.20
12125;DHT22;6126;57.908;16.490;2023-04-28T05:31:38;5.20;80.00
12125;DHT22;6126;57.908;16.490;2023-04-28T05:34:03;5.40;80.10
12125;DHT22;6126;57.908;16.490;2023-04-28T05:36:30;5.60;80.20
12125;DHT22;6126;57.908;16.490;2023-04-28T05:38:56;5.50;80.10
12125;DHT22;6126;57.908;16.490;2023-04-28T05:41:22;5.70;80.20
12125;DHT22;6126;57.908;16.490;2023-04-28T05:43:48;5.70;80.00
12125;DHT22;6126;57.908;16.490;2023-04-28T05:46:16;5.70;79.90
12125;DHT22;6126;57.908;16.490;2023-04-28T05:48:42;5.60;79.70
12125;DHT22;6126;57.908;16.490;2023-04-28T05:51:08;6.00;80.10
12125;DHT22;6126;57.908;16.490;2023-04-28T05:53:34;5.80;79.60
12125;DHT22;6126;57.908;16.490;2023-04-28T05:56:00;6.10;79.80
12125;DHT22;6126;57.908;16.490;2023-04-28T05:58:26;6.30;79.80
12125;DHT22;6126;57.908;16.490;2023-04-28T06:00:52;6.20;78.90
12125;DHT22;6126;57.908;16.490;2023-04-28T06:03:19;6.20;79.30
12125;DHT22;6126;57.908;16.490;2023-04-28T06:05:45;6.40;78.70
12125;DHT22;6126;57.908;16.490;2023-04-28T06:08:11;6.60;79.40
12125;DHT22;6126;57.908;16.490;2023-04-28T06:10:37;6.60;79.20
12125;DHT22;6126;57.908;16.490;2023-04-28T06:13:03;6.50;78.80
12125;DHT22;6126;57.908;16.490;2023-04-28T06:15:31;6.90;79.00
12125;DHT22;6126;57.908;16.490;2023-04-28T06:17:57;6.80;78.70
12125;DHT22;6126;57.908;16.490;2023-04-28T06:20:24;6.70;78.50
12125;DHT22;6126;57.908;16.490;2023-04-28T06:22:49;6.90;78.50
12125;DHT22;6126;57.908;16.490;2023-04-28T06:25:16;6.90;77.80
12125;DHT22;6126;57.908;16.490;2023-04-28T06:27:41;7.30;78.60
12125;DHT22;6126;57.908;16.490;2023-04-28T06:30:08;7.20;78.30
12125;DHT22;6126;57.908;16.490;2023-04-28T06:32:34;7.10;78.00
12125;DHT22;6126;57.908;16.490;2023-04-28T06:35:00;7.40;78.10
12125;DHT22;6126;57.908;16.490;2023-04-28T06:37:26;7.40;78.10
12125;DHT22;6126;57.908;16.490;2023-04-28T06:39:52;7.30;77.90
12125;DHT22;6126;57.908;16.490;2023-04-28T06:42:18;7.20;77.50
12125;DHT22;6126;57.908;16.490;2023-04-28T06:44:44;7.50;77.70
12125;DHT22;6126;57.908;16.490;2023-04-28T06:47:11;7.50;77.60
12125;DHT22;6126;57.908;16.490;2023-04-28T06:49:36;7.30;77.20
12125;DHT22;6126;57.908;16.490;2023-04-28T06:52:02;7.30;77.20
12125;DHT22;6126;57.908;16.490;2023-04-28T06:54:28;7.30;77.10
12125;DHT22;6126;57.908;16.490;2023-04-28T06:56:54;7.40;77.10
12125;DHT22;6126;57.908;16.490;2023-04-28T06:59:20;7.70;77.10
12125;DHT22;6126;57.908;16.490;2023-04-28T07:01:46;7.90;77.20
12125;DHT22;6126;57.908;16.490;2023-04-28T07:04:12;7.80;76.90
12125;DHT22;6126;57.908;16.490;2023-04-28T07:06:38;7.90;76.80
12125;DHT22;6126;57.908;16.490;2023-04-28T07:09:04;7.70;76.50
12125;DHT22;6126;57.908;16.490;2023-04-28T07:11:29;8.10;76.70
12125;DHT22;6126;57.908;16.490;2023-04-28T07:13:57;7.90;76.40
12125;DHT22;6126;57.908;16.490;2023-04-28T07:16:24;8.20;76.40
12125;DHT22;6126;57.908;16.490;2023-04-28T07:18:51;8.30;76.30
12125;DHT22;6126;57.908;16.490;2023-04-28T07:21:17;8.20;76.10
12125;DHT22;6126;57.908;16.490;2023-04-28T07:23:42;8.10;75.80
12125;DHT22;6126;57.908;16.490;2023-04-28T07:26:08;8.20;75.70
12125;DHT22;6126;57.908;16.490;2023-04-28T07:28:34;8.30;75.60
12125;DHT22;6126;57.908;16.490;2023-04-28T07:31:00;8.50;75.20
12125;DHT22;6126;57.908;16.490;2023-04-28T07:33:26;8.60;75.40
12125;DHT22;6126;57.908;16.490;2023-04-28T07:35:52;8.50;74.60
12125;DHT22;6126;57.908;16.490;2023-04-28T07:38:18;8.50;74.40
12125;DHT22;6126;57.908;16.490;2023-04-28T07:40:45;8.80;74.90
12125;DHT22;6126;57.908;16.490;2023-04-28T07:43:12;8.50;74.30
12125;DHT22;6126;57.908;16.490;2023-04-28T07:45:39;8.70;74.40
12125;DHT22;6126;57.908;16.490;2023-04-28T07:48:05;8.90;74.40
12125;DHT22;6126;57.908;16.490;2023-04-28T07:50:32;9.00;74.70
12125;DHT22;6126;57.908;16.490;2023-04-28T07:52:58;9.20;74.10
12125;DHT22;6126;57.908;16.490;2023-04-28T07:55:24;8.80;73.40
12125;DHT22;6126;57.908;16.490;2023-04-28T07:57:50;9.10;73.50
12125;DHT22;6126;57.908;16.490;2023-04-28T08:00:16;9.00;73.30
12125;DHT22;6126;57.908;16.490;2023-04-28T08:02:43;9.20;73.40
12125;DHT22;6126;57.908;16.490;2023-04-28T08:05:09;9.30;73.30
12125;DHT22;6126;57.908;16.490;2023-04-28T08:07:35;9.50;73.20
12125;DHT22;6126;57.908;16.490;2023-04-28T08:10:03;9.40;72.80
12125;DHT22;6126;57.908;16.490;2023-04-28T08:12:29;9.60;72.70
12125;DHT22;6126;57.908;16.490;2023-04-28T08:14:56;9.80;72.60
12125;DHT22;6126;57.908;16.490;2023-04-28T08:17:22;9.60;72.10
12125;DHT22;6126;57.908;16.490;2023-04-28T08:19:48;9.70;71.90
12125;DHT22;6126;57.908;16.490;2023-04-28T08:22:14;9.90;71.80
12125;DHT22;6126;57.908;16.490;2023-04-28T08:24:40;10.10;70.50
12125;DHT22;6126;57.908;16.490;2023-04-28T08:27:07;10.20;70.40
12125;DHT22;6126;57.908;16.490;2023-04-28T08:29:33;10.20;70.10
12125;DHT22;6126;57.908;16.490;2023-04-28T08:31:59;10.10;69.80
12125;DHT22;6126;57.908;16.490;2023-04-28T08:34:29;10.10;69.60
12125;DHT22;6126;57.908;16.490;2023-04-28T08:36:55;10.50;69.70
12125;DHT22;6126;57.908;16.490;2023-04-28T08:39:20;10.50;69.50
12125;DHT22;6126;57.908;16.490;2023-04-28T08:41:48;10.50;69.10
12125;DHT22;6126;57.908;16.490;2023-04-28T08:44:13;10.60;69.00
12125;DHT22;6126;57.908;16.490;2023-04-28T08:46:43;10.80;69.70
12125;DHT22;6126;57.908;16.490;2023-04-28T08:49:14;10.50;68.40
12125;DHT22;6126;57.908;16.490;2023-04-28T08:51:55;10.80;68.60
12125;DHT22;6126;57.908;16.490;2023-04-28T08:54:27;11.00;68.30
12125;DHT22;6126;57.908;16.490;2023-04-28T08:57:01;11.00;67.90
12125;DHT22;6126;57.908;16.490;2023-04-28T08:59:29;11.00;67.70
12125;DHT22;6126;57.908;16.490;2023-04-28T09:01:55;11.10;67.60
12125;DHT22;6126;57.908;16.490;2023-04-28T09:04:21;11.00;67.30
12125;DHT22;6126;57.908;16.490;2023-04-28T09:06:47;11.00;67.80
12125;DHT22;6126;57.908;16.490;2023-04-28T09:09:26;11.60;67.40
12125;DHT22;6126;57.908;16.490;2023-04-28T09:12:00;11.40;66.90
12125;DHT22;6126;57.908;16.490;2023-04-28T09:14:32;11.50;67.40
12125;DHT22;6126;57.908;16.490;2023-04-28T09:17:01;11.40;66.20
12125;DHT22;6126;57.908;16.490;2023-04-28T09:19:36;11.50;66.00
12125;DHT22;6126;57.908;16.490;2023-04-28T09:22:03;11.40;65.60
12125;DHT22;6126;57.908;16.490;2023-04-28T09:24:38;11.50;65.40
12125;DHT22;6126;57.908;16.490;2023-04-28T09:27:06;11.70;65.20
12125;DHT22;6126;57.908;16.490;2023-04-28T09:29:35;11.80;65.10
12125;DHT22;6126;57.908;16.490;2023-04-28T09:32:17;12.10;65.00
12125;DHT22;6126;57.908;16.490;2023-04-28T09:34:53;12.00;64.90
12125;DHT22;6126;57.908;16.490;2023-04-28T09:37:25;12.00;64.50
12125;DHT22;6126;57.908;16.490;2023-04-28T09:39:52;12.10;64.20
12125;DHT22;6126;57.908;16.490;2023-04-28T09:42:39;12.20;64.20
12125;DHT22;6126;57.908;16.490;2023-04-28T09:45:13;12.30;63.80
12125;DHT22;6126;57.908;16.490;2023-04-28T09:47:44;11.90;63.50
12125;DHT22;6126;57.908;16.490;2023-04-28T09:50:14;11.80;63.80
12125;DHT22;6126;57.908;16.490;2023-04-28T09:52:43;12.20;63.90
12125;DHT22;6126;57.908;16.490;2023-04-28T09:55:11;11.80;63.30
12125;DHT22;6126;57.908;16.490;2023-04-28T09:57:38;12.10;63.50
12125;DHT22;6126;57.908;16.490;2023-04-28T10:00:05;12.40;63.40
12125;DHT22;6126;57.908;16.490;2023-04-28T10:02:35;12.30;62.70
12125;DHT22;6126;57.908;16.490;2023-04-28T10:05:02;12.40;63.10
12125;DHT22;6126;57.908;16.490;2023-04-28T10:07:28;12.40;62.70
12125;DHT22;6126;57.908;16.490;2023-04-28T10:09:59;12.30;62.20
12125;DHT22;6126;57.908;16.490;2023-04-28T10:12:26;12.20;62.20
12125;DHT22;6126;57.908;16.490;2023-04-28T10:14:52;12.00;62.10
12125;DHT22;6126;57.908;16.490;2023-04-28T10:17:20;11.60;62.20
12125;DHT22;6126;57.908;16.490;2023-04-28T10:19:48;11.80;62.10
12125;DHT22;6126;57.908;16.490;2023-04-28T10:25:36;11.70;61.30
12125;DHT22;6126;57.908;16.490;2023-04-28T10:28:07;11.90;61.20
12125;DHT22;6126;57.908;16.490;2023-04-28T10:30:34;11.80;61.10
12125;DHT22;6126;57.908;16.490;2023-04-28T10:40:42;11.80;60.70
12125;DHT22;6126;57.908;16.490;2023-04-28T10:56:22;12.60;59.10
12125;DHT22;6126;57.908;16.490;2023-04-28T10:58:53;12.30;59.20
12125;DHT22;6126;57.908;16.490;2023-04-28T11:06:20;12.20;59.00
12125;DHT22;6126;57.908;16.490;2023-04-28T11:08:55;12.50;58.90
12125;DHT22;6126;57.908;16.490;2023-04-28T11:16:53;12.90;57.70
12125;DHT22;6126;57.908;16.490;2023-04-28T11:19:22;12.80;57.20
12125;DHT22;6126;57.908;16.490;2023-04-28T11:21:50;12.60;57.20
12125;DHT22;6126;57.908;16.490;2023-04-28T11:24:18;12.40;57.30
12125;DHT22;6126;57.908;16.490;2023-04-28T11:26:44;12.20;57.60
12125;DHT22;6126;57.908;16.490;2023-04-28T11:29:11;12.30;57.60
12125;DHT22;6126;57.908;16.490;2023-04-28T11:31:39;12.50;57.30
12125;DHT22;6126;57.908;16.490;2023-04-28T11:34:18;13.10;57.30
12125;DHT22;6126;57.908;16.490;2023-04-28T11:36:46;13.00;56.70
12125;DHT22;6126;57.908;16.490;2023-04-28T11:39:13;13.00;56.30
12125;DHT22;6126;57.908;16.490;2023-04-28T11:41:41;13.30;56.50
12125;DHT22;6126;57.908;16.490;2023-04-28T11:44:17;13.30;56.30
12125;DHT22;6126;57.908;16.490;2023-04-28T11:46:51;13.30;55.90
12125;DHT22;6126;57.908;16.490;2023-04-28T11:49:28;13.80;55.90
12125;DHT22;6126;57.908;16.490;2023-04-28T11:52:03;13.80;55.40
12125;DHT22;6126;57.908;16.490;2023-04-28T11:54:30;13.80;55.10
12125;DHT22;6126;57.908;16.490;2023-04-28T11:56:57;14.00;55.00
12125;DHT22;6126;57.908;16.490;2023-04-28T11:59:27;14.20;54.80
12125;DHT22;6126;57.908;16.490;2023-04-28T12:01:55;14.20;54.60
12125;DHT22;6126;57.908;16.490;2023-04-28T12:04:34;14.30;54.50
12125;DHT22;6126;57.908;16.490;2023-04-28T12:07:16;14.20;54.30
12125;DHT22;6126;57.908;16.490;2023-04-28T12:09:48;14.50;54.40
12125;DHT22;6126;57.908;16.490;2023-04-28T12:12:36;14.40;54.10
12125;DHT22;6126;57.908;16.490;2023-04-28T12:15:04;14.20;54.00
12125;DHT22;6126;57.908;16.490;2023-04-28T12:17:41;14.10;54.10
12125;DHT22;6126;57.908;16.490;2023-04-28T12:20:09;14.60;54.30
12125;DHT22;6126;57.908;16.490;2023-04-28T12:22:47;14.30;54.00
12125;DHT22;6126;57.908;16.490;2023-04-28T12:25:16;14.30;54.00
12125;DHT22;6126;57.908;16.490;2023-04-28T12:28:05;14.40;53.80
12125;DHT22;6126;57.908;16.490;2023-04-28T12:30:36;14.70;53.60
12125;DHT22;6126;57.908;16.490;2023-04-28T12:33:03;15.00;53.40
12125;DHT22;6126;57.908;16.490;2023-04-28T12:35:29;14.80;53.30
12125;DHT22;6126;57.908;16.490;2023-04-28T12:37:56;14.50;53.20
12125;DHT22;6126;57.908;16.490;2023-04-28T12:40:23;14.40;53.60
12125;DHT22;6126;57.908;16.490;2023-04-28T12:42:49;14.00;53.60
12125;DHT22;6126;57.908;16.490;2023-04-28T12:45:15;13.90;53.90
12125;DHT22;6126;57.908;16.490;2023-04-28T12:47:41;14.00;54.20
12125;DHT22;6126;57.908;16.490;2023-04-28T12:50:08;14.00;54.10
12125;DHT22;6126;57.908;16.490;2023-04-28T12:52:34;14.10;53.80
12125;DHT22;6126;57.908;16.490;2023-04-28T12:55:02;14.20;53.40
12125;DHT22;6126;57.908;16.490;2023-04-28T12:57:29;14.30;53.00
12125;DHT22;6126;57.908;16.490;2023-04-28T12:59:55;14.80;52.80
12125;DHT22;6126;57.908;16.490;2023-04-28T13:02:21;14.90;52.40
12125;DHT22;6126;57.908;16.490;2023-04-28T13:04:48;15.10;52.40
12125;DHT22;6126;57.908;16.490;2023-04-28T13:07:14;14.80;52.20
12125;DHT22;6126;57.908;16.490;2023-04-28T13:09:41;14.80;52.40
12125;DHT22;6126;57.908;16.490;2023-04-28T13:12:08;14.70;52.30
12125;DHT22;6126;57.908;16.490;2023-04-28T13:14:36;14.70;52.20
12125;DHT22;6126;57.908;16.490;2023-04-28T13:17:02;15.00;52.20
12125;DHT22;6126;57.908;16.490;2023-04-28T13:19:28;14.70;51.60
12125;DHT22;6126;57.908;16.490;2023-04-28T13:21:56;14.70;51.50
12125;DHT22;6126;57.908;16.490;2023-04-28T13:24:22;14.70;51.60
12125;DHT22;6126;57.908;16.490;2023-04-28T13:26:48;14.90;51.70
12125;DHT22;6126;57.908;16.490;2023-04-28T13:29:14;14.80;51.40
12125;DHT22;6126;57.908;16.490;2023-04-28T13:31:40;14.80;51.20
12125;DHT22;6126;57.908;16.490;2023-04-28T13:34:06;14.40;50.90
12125;DHT22;6126;57.908;16.490;2023-04-28T13:36:33;14.10;51.10
12125;DHT22;6126;57.908;16.490;2023-04-28T13:38:59;13.90;51.10
12125;DHT22;6126;57.908;16.490;2023-04-28T13:41:26;13.90;51.50
12125;DHT22;6126;57.908;16.490;2023-04-28T13:43:52;13.80;51.70
12125;DHT22;6126;57.908;16.490;2023-04-28T13:46:19;13.80;51.50
12125;DHT22;6126;57.908;16.490;2023-04-28T13:48:45;14.30;51.40
12125;DHT22;6126;57.908;16.490;2023-04-28T13:51:11;14.40;51.00
12125;DHT22;6126;57.908;16.490;2023-04-28T13:53:37;14.50;50.80
12125;DHT22;6126;57.908;16.490;2023-04-28T13:56:06;14.40;50.40
12125;DHT22;6126;57.908;16.490;2023-04-28T13:58:33;14.70;50.30
12125;DHT22;6126;57.908;16.490;2023-04-28T14:00:59;14.80;50.10
12125;DHT22;6126;57.908;16.490;2023-04-28T14:03:25;15.00;50.00
12125;DHT22;6126;57.908;16.490;2023-04-28T14:05:54;15.00;49.70
12125;DHT22;6126;57.908;16.490;2023-04-28T14:08:22;15.20;49.80
12125;DHT22;6126;57.908;16.490;2023-04-28T14:10:50;15.10;49.50
12125;DHT22;6126;57.908;16.490;2023-04-28T14:13:17;15.50;49.60
12125;DHT22;6126;57.908;16.490;2023-04-28T14:15:43;15.20;49.30
12125;DHT22;6126;57.908;16.490;2023-04-28T14:18:11;15.30;49.30
12125;DHT22;6126;57.908;16.490;2023-04-28T14:20:37;15.30;49.20
12125;DHT22;6126;57.908;16.490;2023-04-28T14:23:03;15.30;48.90
12125;DHT22;6126;57.908;16.490;2023-04-28T14:25:29;15.10;48.90
12125;DHT22;6126;57.908;16.490;2023-04-28T14:27:55;15.40;49.20
12125;DHT22;6126;57.908;16.490;2023-04-28T14:30:21;15.00;49.00
12125;DHT22;6126;57.908;16.490;2023-04-28T14:32:48;15.20;49.00
12125;DHT22;6126;57.908;16.490;2023-04-28T14:35:15;15.50;49.70
12125;DHT22;6126;57.908;16.490;2023-04-28T14:37:42;15.70;49.10
12125;DHT22;6126;57.908;16.490;2023-04-28T14:40:09;15.60;48.70
12125;DHT22;6126;57.908;16.490;2023-04-28T14:42:35;15.80;48.80
12125;DHT22;6126;57.908;16.490;2023-04-28T14:45:09;16.10;48.80
12125;DHT22;6126;57.908;16.490;2023-04-28T14:47:37;16.10;48.70
12125;DHT22;6126;57.908;16.490;2023-04-28T14:50:04;16.20;48.70
12125;DHT22;6126;57.908;16.490;2023-04-28T14:52:31;16.10;48.40
12125;DHT22;6126;57.908;16.490;2023-04-28T14:54:58;16.00;48.60
12125;DHT22;6126;57.908;16.490;2023-04-28T14:57:25;15.80;48.60
12125;DHT22;6126;57.908;16.490;2023-04-28T14:59:51;15.80;48.60
12125;DHT22;6126;57.908;16.490;2023-04-28T15:02:18;16.00;48.80
12125;DHT22;6126;57.908;16.490;2023-04-28T15:04:46;15.70;48.50
12125;DHT22;6126;57.908;16.490;2023-04-28T15:07:13;15.80;48.50
12125;DHT22;6126;57.908;16.490;2023-04-28T15:09:39;15.80;48.50
12125;DHT22;6126;57.908;16.490;2023-04-28T15:12:05;15.60;48.30
12125;DHT22;6126;57.908;16.490;2023-04-28T15:14:31;15.70;48.40
12125;DHT22;6126;57.908;16.490;2023-04-28T15:16:58;15.80;48.40
12125;DHT22;6126;57.908;16.490;2023-04-28T15:19:24;15.60;48.30
12125;DHT22;6126;57.908;16.490;2023-04-28T15:21:50;15.40;48.30
12125;DHT22;6126;57.908;16.490;2023-04-28T15:24:18;15.60;48.50
12125;DHT22;6126;57.908;16.490;2023-04-28T15:26:45;15.50;48.30
12125;DHT22;6126;57.908;16.490;2023-04-28T15:29:11;15.30;48.30
12125;DHT22;6126;57.908;16.490;2023-04-28T15:31:38;15.20;48.40
12125;DHT22;6126;57.908;16.490;2023-04-28T15:34:05;15.00;48.20
12125;DHT22;6126;57.908;16.490;2023-04-28T15:36:36;15.40;48.50
12125;DHT22;6126;57.908;16.490;2023-04-28T15:39:06;15.10;48.10
12125;DHT22;6126;57.908;16.490;2023-04-28T15:41:33;15.30;48.20
12125;DHT22;6126;57.908;16.490;2023-04-28T15:44:00;15.30;48.10
12125;DHT22;6126;57.908;16.490;2023-04-28T15:46:27;15.50;48.20
12125;DHT22;6126;57.908;16.490;2023-04-28T15:48:53;15.50;48.10
12125;DHT22;6126;57.908;16.490;2023-04-28T15:51:19;15.50;47.90
12125;DHT22;6126;57.908;16.490;2023-04-28T15:53:45;15.50;47.80
12125;DHT22;6126;57.908;16.490;2023-04-28T15:56:11;15.70;47.90
12125;DHT22;6126;57.908;16.490;2023-04-28T15:58:37;15.90;47.90
12125;DHT22;6126;57.908;16.490;2023-04-28T16:01:03;15.90;47.80
12125;DHT22;6126;57.908;16.490;2023-04-28T16:03:29;15.60;47.60
12125;DHT22;6126;57.908;16.490;2023-04-28T16:05:56;15.60;47.70
12125;DHT22;6126;57.908;16.490;2023-04-28T16:08:22;15.60;47.90
12125;DHT22;6126;57.908;16.490;2023-04-28T16:10:51;15.40;47.90
12125;DHT22;6126;57.908;16.490;2023-04-28T16:13:18;15.40;48.10
12125;DHT22;6126;57.908;16.490;2023-04-28T16:15:44;15.40;48.20